sensor_id;sensor_type;location;lat;lon;timestamp;pressure;altitude;pressure_sealevel;temperature;humidity
55191;BME280;41070;50.360;18.742;2024-02-23T00:00:35;96703.98;;;7.52;94.90
55191;BME280;41070;50.360;18.742;2024-02-23T00:03:22;96703.50;;;7.50;94.95
55191;BME280;41070;50.360;18.742;2024-02-23T00:05:48;96700.39;;;7.51;95.17
55191;BME280;41070;50.360;18.742;2024-02-23T00:08:14;96702.08;;;7.51;95.16
55191;BME280;41070;50.360;18.742;2024-02-23T00:10:40;96706.17;;;7.51;95.37
55191;BME280;41070;50.360;18.742;2024-02-23T00:13:07;96697.04;;;7.50;95.38
55191;BME280;41070;50.360;18.742;2024-02-23T00:15:33;96697.95;;;7.50;95.37
55191;BME280;41070;50.360;18.742;2024-02-23T00:17:59;96697.48;;;7.49;95.40
55191;BME280;41070;50.360;18.742;2024-02-23T00:20:25;96694.52;;;7.48;95.50
55191;BME280;41070;50.360;18.742;2024-02-23T00:22:52;96690.55;;;7.47;95.43
55191;BME280;41070;50.360;18.742;2024-02-23T00:25:19;96688.27;;;7.47;95.58
55191;BME280;41070;50.360;18.742;2024-02-23T00:27:45;96688.88;;;7.47;95.69
55191;BME280;41070;50.360;18.742;2024-02-23T00:30:13;96686.07;;;7.47;95.63
55191;BME280;41070;50.360;18.742;2024-02-23T00:32:39;96689.10;;;7.47;95.65
55191;BME280;41070;50.360;18.742;2024-02-23T00:35:06;96688.95;;;7.46;95.89
55191;BME280;41070;50.360;18.742;2024-02-23T00:37:32;96686.27;;;7.44;95.87
55191;BME280;41070;50.360;18.742;2024-02-23T00:40:02;96697.05;;;7.42;95.85
55191;BME280;41070;50.360;18.742;2024-02-23T00:42:30;96699.10;;;7.41;95.81
55191;BME280;41070;50.360;18.742;2024-02-23T00:44:56;96695.27;;;7.40;95.97
55191;BME280;41070;50.360;18.742;2024-02-23T00:47:22;96698.33;;;7.41;95.91
55191;BME280;41070;50.360;18.742;2024-02-23T00:49:49;96700.77;;;7.41;95.97
55191;BME280;41070;50.360;18.742;2024-02-23T00:52:15;96707.45;;;7.42;95.93
55191;BME280;41070;50.360;18.742;2024-02-23T00:54:42;96710.20;;;7.42;96.19
55191;BME280;41070;50.360;18.742;2024-02-23T00:57:08;96713.91;;;7.40;96.13
55191;BME280;41070;50.360;18.742;2024-02-23T00:59:34;96714.65;;;7.39;96.26
55191;BME280;41070;50.360;18.742;2024-02-23T01:02:01;96713.82;;;7.39;96.41
55191;BME280;41070;50.360;18.742;2024-02-23T01:04:27;96717.52;;;7.44;96.43
55191;BME280;41070;50.360;18.742;2024-02-23T01:06:53;96713.66;;;7.46;96.61
55191;BME280;41070;50.360;18.742;2024-02-23T01:09:20;96709.34;;;7.49;96.42
55191;BME280;41070;50.360;18.742;2024-02-23T01:11:46;96704.16;;;7.46;96.41
55191;BME280;41070;50.360;18.742;2024-02-23T01:14:13;96703.77;;;7.45;96.46
55191;BME280;41070;50.360;18.742;2024-02-23T01:16:39;96696.94;;;7.46;96.72
55191;BME280;41070;50.360;18.742;2024-02-23T01:19:06;96698.00;;;7.47;96.76
55191;BME280;41070;50.360;18.742;2024-02-23T01:21:32;96697.70;;;7.46;96.80
55191;BME280;41070;50.360;18.742;2024-02-23T01:23:58;96707.02;;;7.45;96.88
55191;BME280;41070;50.360;18.742;2024-02-23T01:26:26;96705.79;;;7.42;97.06
55191;BME280;41070;50.360;18.742;2024-02-23T01:28:53;96708.14;;;7.41;97.15
55191;BME280;41070;50.360;18.742;2024-02-23T01:31:19;96703.69;;;7.38;97.23
55191;BME280;41070;50.360;18.742;2024-02-23T01:33:46;96700.10;;;7.36;97.23
55191;BME280;41070;50.360;18.742;2024-02-23T01:36:12;96694.33;;;7.35;97.45
55191;BME280;41070;50.360;18.742;2024-02-23T01:38:39;96686.56;;;7.35;97.41
55191;BME280;41070;50.360;18.742;2024-02-23T01:41:05;96690.13;;;7.34;97.55
55191;BME280;41070;50.360;18.742;2024-02-23T01:43:32;96692.92;;;7.32;97.61
55191;BME280;41070;50.360;18.742;2024-02-23T01:45:58;96685.62;;;7.30;97.70
55191;BME280;41070;50.360;18.742;2024-02-23T01:48:25;96688.80;;;7.30;97.88
55191;BME280;41070;50.360;18.742;2024-02-23T01:50:51;96687.35;;;7.29;98.02
55191;BME280;41070;50.360;18.742;2024-02-23T01:53:17;96692.97;;;7.29;97.97
55191;BME280;41070;50.360;18.742;2024-02-23T01:55:45;96690.55;;;7.28;98.17
55191;BME280;41070;50.360;18.742;2024-02-23T01:58:12;96688.25;;;7.28;98.49
55191;BME280;41070;50.360;18.742;2024-02-23T02:00:38;96690.39;;;7.28;98.27
55191;BME280;41070;50.360;18.742;2024-02-23T02:03:04;96689.32;;;7.29;98.48
55191;BME280;41070;50.360;18.742;2024-02-23T02:05:31;96687.48;;;7.27;98.49
55191;BME280;41070;50.360;18.742;2024-02-23T02:07:57;96685.35;;;7.26;98.45
55191;BME280;41070;50.360;18.742;2024-02-23T02:10:24;96679.57;;;7.26;98.48
55191;BME280;41070;50.360;18.742;2024-02-23T02:12:51;96680.32;;;7.24;98.43
55191;BME280;41070;50.360;18.742;2024-02-23T02:15:17;96681.58;;;7.22;98.47
55191;BME280;41070;50.360;18.742;2024-02-23T02:17:43;96683.70;;;7.22;98.52
55191;BME280;41070;50.360;18.742;2024-02-23T02:20:13;96693.73;;;7.22;98.56
55191;BME280;41070;50.360;18.742;2024-02-23T02:22:40;96700.89;;;7.23;98.54
55191;BME280;41070;50.360;18.742;2024-02-23T02:25:06;96701.59;;;7.24;98.87
55191;BME280;41070;50.360;18.742;2024-02-23T02:27:32;96705.95;;;7.27;98.81
55191;BME280;41070;50.360;18.742;2024-02-23T02:29:59;96710.92;;;7.30;98.80
55191;BME280;41070;50.360;18.742;2024-02-23T02:32:25;96714.04;;;7.31;98.89
55191;BME280;41070;50.360;18.742;2024-02-23T02:34:51;96715.56;;;7.32;98.86
55191;BME280;41070;50.360;18.742;2024-02-23T02:37:18;96717.27;;;7.34;99.06
55191;BME280;41070;50.360;18.742;2024-02-23T02:39:44;96714.44;;;7.32;98.83
55191;BME280;41070;50.360;18.742;2024-02-23T02:42:10;96716.48;;;7.30;98.99
55191;BME280;41070;50.360;18.742;2024-02-23T02:44:37;96720.70;;;7.26;99.18
55191;BME280;41070;50.360;18.742;2024-02-23T02:47:03;96723.36;;;7.20;98.96
55191;BME280;41070;50.360;18.742;2024-02-23T02:49:29;96727.80;;;7.15;99.21
55191;BME280;41070;50.360;18.742;2024-02-23T02:51:56;96737.59;;;7.14;99.52
55191;BME280;41070;50.360;18.742;2024-02-23T02:54:22;96735.41;;;7.16;99.81
55191;BME280;41070;50.360;18.742;2024-02-23T02:56:48;96731.65;;;7.19;99.84
55191;BME280;41070;50.360;18.742;2024-02-23T02:59:16;96732.85;;;7.20;99.80
55191;BME280;41070;50.360;18.742;2024-02-23T03:01:44;96739.55;;;7.19;99.80
55191;BME280;41070;50.360;18.742;2024-02-23T03:04:11;96741.75;;;7.20;99.85
55191;BME280;41070;50.360;18.742;2024-02-23T03:06:37;96739.10;;;7.20;99.71
55191;BME280;41070;50.360;18.742;2024-02-23T03:09:03;96735.20;;;7.19;99.69
55191;BME280;41070;50.360;18.742;2024-02-23T03:11:30;96733.99;;;7.19;99.89
55191;BME280;41070;50.360;18.742;2024-02-23T03:13:56;96737.95;;;7.19;99.88
55191;BME280;41070;50.360;18.742;2024-02-23T03:16:23;96743.26;;;7.18;99.88
55191;BME280;41070;50.360;18.742;2024-02-23T03:18:52;96741.34;;;7.17;99.96
55191;BME280;41070;50.360;18.742;2024-02-23T03:21:20;96745.13;;;7.14;99.96
55191;BME280;41070;50.360;18.742;2024-02-23T03:23:46;96745.30;;;7.12;100.00
55191;BME280;41070;50.360;18.742;2024-02-23T03:26:12;96745.80;;;7.07;99.98
55191;BME280;41070;50.360;18.742;2024-02-23T03:28:39;96743.23;;;7.01;100.00
55191;BME280;41070;50.360;18.742;2024-02-23T03:31:05;96743.87;;;6.98;100.00
55191;BME280;41070;50.360;18.742;2024-02-23T03:33:32;96743.54;;;6.95;100.00
55191;BME280;41070;50.360;18.742;2024-02-23T03:35:58;96742.92;;;6.94;100.00
55191;BME280;41070;50.360;18.742;2024-02-23T03:38:24;96748.36;;;6.93;100.00
55191;BME280;41070;50.360;18.742;2024-02-23T03:40:51;96748.35;;;6.90;100.00
55191;BME280;41070;50.360;18.742;2024-02-23T03:43:17;96746.04;;;6.89;100.00
55191;BME280;41070;50.360;18.742;2024-02-23T03:45:43;96752.33;;;6.87;100.00
55191;BME280;41070;50.360;18.742;2024-02-23T03:48:10;96759.98;;;6.86;100.00
55191;BME280;41070;50.360;18.742;2024-02-23T03:50:36;96761.20;;;6.84;100.00
55191;BME280;41070;50.360;18.742;2024-02-23T03:53:02;96762.23;;;6.83;100.00
55191;BME280;41070;50.360;18.742;2024-02-23T03:55:29;96760.70;;;6.82;100.00
55191;BME280;41070;50.360;18.742;2024-02-23T03:57:55;96759.31;;;6.80;100.00
55191;BME280;41070;50.360;18.742;2024-02-23T04:00:24;96757.05;;;6.82;100.00
55191;BME280;41070;50.360;18.742;2024-02-23T04:02:50;96760.86;;;6.82;100.00
55191;BME280;41070;50.360;18.742;2024-02-23T04:05:18;96765.48;;;6.82;100.00
55191;BME280;41070;50.360;18.742;2024-02-23T04:07:44;96772.50;;;6.84;100.00
55191;BME280;41070;50.360;18.742;2024-02-23T04:10:11;96776.55;;;6.85;100.00
55191;BME280;41070;50.360;18.742;2024-02-23T04:12:42;96774.34;;;6.85;100.00
55191;BME280;41070;50.360;18.742;2024-02-23T04:15:09;96774.20;;;6.85;100.00
55191;BME280;41070;50.360;18.742;2024-02-23T04:17:35;96775.23;;;6.84;100.00
55191;BME280;41070;50.360;18.742;2024-02-23T04:20:05;96779.08;;;6.82;100.00
55191;BME280;41070;50.360;18.742;2024-02-23T04:22:31;96780.22;;;6.82;100.00
55191;BME280;41070;50.360;18.742;2024-02-23T04:24:58;96783.55;;;6.80;100.00
55191;BME280;41070;50.360;18.742;2024-02-23T04:27:24;96779.44;;;6.80;100.00
55191;BME280;41070;50.360;18.742;2024-02-23T04:29:50;96778.75;;;6.80;100.00
55191;BME280;41070;50.360;18.742;2024-02-23T04:32:16;96782.02;;;6.80;100.00
55191;BME280;41070;50.360;18.742;2024-02-23T04:34:43;96791.89;;;6.80;100.00
55191;BME280;41070;50.360;18.742;2024-02-23T04:37:09;96793.97;;;6.81;100.00
55191;BME280;41070;50.360;18.742;2024-02-23T04:39:36;96800.81;;;6.83;100.00
55191;BME280;41070;50.360;18.742;2024-02-23T04:42:04;96797.16;;;6.82;100.00
55191;BME280;41070;50.360;18.742;2024-02-23T04:44:30;96798.55;;;6.83;100.00
55191;BME280;41070;50.360;18.742;2024-02-23T04:46:56;96803.01;;;6.83;100.00
55191;BME280;41070;50.360;18.742;2024-02-23T04:49:23;96805.67;;;6.82;100.00
55191;BME280;41070;50.360;18.742;2024-02-23T04:51:49;96807.71;;;6.82;100.00
55191;BME280;41070;50.360;18.742;2024-02-23T04:54:15;96806.71;;;6.81;100.00
55191;BME280;41070;50.360;18.742;2024-02-23T04:56:41;96808.77;;;6.81;100.00
55191;BME280;41070;50.360;18.742;2024-02-23T04:59:08;96810.80;;;6.80;100.00
55191;BME280;41070;50.360;18.742;2024-02-23T05:01:35;96813.30;;;6.79;100.00
55191;BME280;41070;50.360;18.742;2024-02-23T05:04:01;96822.70;;;6.78;100.00
55191;BME280;41070;50.360;18.742;2024-02-23T05:06:29;96818.02;;;6.75;100.00
55191;BME280;41070;50.360;18.742;2024-02-23T05:08:55;96821.28;;;6.74;100.00
55191;BME280;41070;50.360;18.742;2024-02-23T05:11:22;96818.75;;;6.73;100.00
55191;BME280;41070;50.360;18.742;2024-02-23T05:13:48;96822.91;;;6.71;100.00
55191;BME280;41070;50.360;18.742;2024-02-23T05:16:14;96827.39;;;6.70;100.00
55191;BME280;41070;50.360;18.742;2024-02-23T05:18:41;96824.34;;;6.69;100.00
55191;BME280;41070;50.360;18.742;2024-02-23T05:21:07;96824.55;;;6.68;100.00
55191;BME280;41070;50.360;18.742;2024-02-23T05:23:35;96825.83;;;6.67;100.00
55191;BME280;41070;50.360;18.742;2024-02-23T05:26:01;96828.68;;;6.65;100.00
55191;BME280;41070;50.360;18.742;2024-02-23T05:28:28;96833.14;;;6.64;100.00
55191;BME280;41070;50.360;18.742;2024-02-23T05:30:54;96838.77;;;6.64;100.00
55191;BME280;41070;50.360;18.742;2024-02-23T05:33:22;96844.67;;;6.63;100.00
55191;BME280;41070;50.360;18.742;2024-02-23T05:35:49;96855.17;;;6.65;100.00
55191;BME280;41070;50.360;18.742;2024-02-23T05:38:16;96856.71;;;6.66;100.00
55191;BME280;41070;50.360;18.742;2024-02-23T05:40:43;96859.61;;;6.67;100.00
55191;BME280;41070;50.360;18.742;2024-02-23T05:43:09;96863.77;;;6.70;100.00
55191;BME280;41070;50.360;18.742;2024-02-23T05:45:35;96876.56;;;6.74;100.00
55191;BME280;41070;50.360;18.742;2024-02-23T05:48:02;96882.46;;;6.77;100.00
55191;BME280;41070;50.360;18.742;2024-02-23T05:50:28;96885.48;;;6.81;100.00
55191;BME280;41070;50.360;18.742;2024-02-23T05:52:54;96879.37;;;6.84;100.00
55191;BME280;41070;50.360;18.742;2024-02-23T05:55:21;96886.08;;;6.86;100.00
55191;BME280;41070;50.360;18.742;2024-02-23T05:57:47;96893.81;;;6.90;100.00
55191;BME280;41070;50.360;18.742;2024-02-23T06:00:13;96897.59;;;6.93;100.00
55191;BME280;41070;50.360;18.742;2024-02-23T06:02:40;96898.88;;;6.94;100.00
55191;BME280;41070;50.360;18.742;2024-02-23T06:05:06;96904.26;;;6.98;100.00
55191;BME280;41070;50.360;18.742;2024-02-23T06:07:33;96910.86;;;6.97;100.00
55191;BME280;41070;50.360;18.742;2024-02-23T06:10:00;96921.87;;;6.97;100.00
55191;BME280;41070;50.360;18.742;2024-02-23T06:12:26;96931.63;;;7.00;100.00
55191;BME280;41070;50.360;18.742;2024-02-23T06:14:53;96943.20;;;7.02;100.00
55191;BME280;41070;50.360;18.742;2024-02-23T06:17:21;96947.23;;;7.02;100.00
55191;BME280;41070;50.360;18.742;2024-02-23T06:19:49;96948.48;;;7.04;100.00
55191;BME280;41070;50.360;18.742;2024-02-23T06:22:16;96945.88;;;7.02;100.00
55191;BME280;41070;50.360;18.742;2024-02-23T06:24:47;96950.15;;;7.03;100.00
55191;BME280;41070;50.360;18.742;2024-02-23T06:27:13;96950.61;;;7.04;100.00
55191;BME280;41070;50.360;18.742;2024-02-23T06:29:39;96944.35;;;7.02;100.00
55191;BME280;41070;50.360;18.742;2024-02-23T06:32:06;96945.79;;;6.97;100.00
55191;BME280;41070;50.360;18.742;2024-02-23T06:34:32;96950.01;;;6.94;100.00
55191;BME280;41070;50.360;18.742;2024-02-23T06:36:58;96951.73;;;6.88;100.00
55191;BME280;41070;50.360;18.742;2024-02-23T06:39:25;96954.95;;;6.84;100.00
55191;BME280;41070;50.360;18.742;2024-02-23T06:41:51;96954.70;;;6.82;100.00
55191;BME280;41070;50.360;18.742;2024-02-23T06:44:18;96953.14;;;6.80;100.00
55191;BME280;41070;50.360;18.742;2024-02-23T06:46:44;96957.97;;;6.78;100.00
55191;BME280;41070;50.360;18.742;2024-02-23T06:49:10;96961.39;;;6.77;100.00
55191;BME280;41070;50.360;18.742;2024-02-23T06:51:37;96968.08;;;6.79;100.00
55191;BME280;41070;50.360;18.742;2024-02-23T06:54:03;96975.71;;;6.81;100.00
55191;BME280;41070;50.360;18.742;2024-02-23T06:56:30;96975.30;;;6.83;100.00
55191;BME280;41070;50.360;18.742;2024-02-23T06:58:56;96980.77;;;6.84;100.00
55191;BME280;41070;50.360;18.742;2024-02-23T07:01:22;96983.03;;;6.87;100.00
55191;BME280;41070;50.360;18.742;2024-02-23T07:03:48;96988.55;;;6.90;100.00
55191;BME280;41070;50.360;18.742;2024-02-23T07:06:16;96988.28;;;6.93;100.00
55191;BME280;41070;50.360;18.742;2024-02-23T07:08:44;96996.97;;;6.95;100.00
55191;BME280;41070;50.360;18.742;2024-02-23T07:11:11;97000.58;;;6.97;100.00
55191;BME280;41070;50.360;18.742;2024-02-23T07:13:37;96991.85;;;6.98;100.00
55191;BME280;41070;50.360;18.742;2024-02-23T07:16:03;96997.09;;;6.97;100.00
55191;BME280;41070;50.360;18.742;2024-02-23T07:18:30;96995.61;;;7.00;100.00
55191;BME280;41070;50.360;18.742;2024-02-23T07:20:56;96995.72;;;7.02;100.00
55191;BME280;41070;50.360;18.742;2024-02-23T07:23:22;96995.83;;;7.04;100.00
55191;BME280;41070;50.360;18.742;2024-02-23T07:25:49;96993.95;;;7.05;100.00
55191;BME280;41070;50.360;18.742;2024-02-23T07:28:16;96994.73;;;7.07;100.00
55191;BME280;41070;50.360;18.742;2024-02-23T07:30:45;96995.66;;;7.08;100.00
55191;BME280;41070;50.360;18.742;2024-02-23T07:33:12;96997.14;;;7.11;100.00
55191;BME280;41070;50.360;18.742;2024-02-23T07:35:38;96997.61;;;7.12;100.00
55191;BME280;41070;50.360;18.742;2024-02-23T07:38:04;97000.29;;;7.13;100.00
55191;BME280;41070;50.360;18.742;2024-02-23T07:40:30;96998.02;;;7.13;100.00
55191;BME280;41070;50.360;18.742;2024-02-23T07:42:57;96997.50;;;7.15;100.00
55191;BME280;41070;50.360;18.742;2024-02-23T07:45:23;97001.27;;;7.17;100.00
55191;BME280;41070;50.360;18.742;2024-02-23T07:47:51;96997.79;;;7.19;100.00
55191;BME280;41070;50.360;18.742;2024-02-23T07:50:17;97007.01;;;7.21;100.00
55191;BME280;41070;50.360;18.742;2024-02-23T07:52:44;97007.65;;;7.22;100.00
55191;BME280;41070;50.360;18.742;2024-02-23T07:55:11;97001.61;;;7.21;100.00
55191;BME280;41070;50.360;18.742;2024-02-23T07:57:37;96998.17;;;7.19;100.00
55191;BME280;41070;50.360;18.742;2024-02-23T08:00:05;96999.52;;;7.19;100.00
55191;BME280;41070;50.360;18.742;2024-02-23T08:02:33;97000.56;;;7.21;100.00
55191;BME280;41070;50.360;18.742;2024-02-23T08:04:59;97003.19;;;7.24;100.00
55191;BME280;41070;50.360;18.742;2024-02-23T08:07:26;97000.94;;;7.26;100.00
55191;BME280;41070;50.360;18.742;2024-02-23T08:09:53;97002.11;;;7.28;100.00
55191;BME280;41070;50.360;18.742;2024-02-23T08:12:20;97003.21;;;7.32;100.00
55191;BME280;41070;50.360;18.742;2024-02-23T08:14:46;97004.09;;;7.35;100.00
55191;BME280;41070;50.360;18.742;2024-02-23T08:17:14;97003.13;;;7.36;100.00
55191;BME280;41070;50.360;18.742;2024-02-23T08:19:41;97001.47;;;7.37;100.00
55191;BME280;41070;50.360;18.742;2024-02-23T08:22:08;97003.77;;;7.39;100.00
55191;BME280;41070;50.360;18.742;2024-02-23T08:24:34;97003.79;;;7.40;100.00
55191;BME280;41070;50.360;18.742;2024-02-23T08:27:01;97000.14;;;7.40;100.00
55191;BME280;41070;50.360;18.742;2024-02-23T08:29:28;97003.64;;;7.40;100.00
55191;BME280;41070;50.360;18.742;2024-02-23T08:31:54;97003.54;;;7.39;100.00
55191;BME280;41070;50.360;18.742;2024-02-23T08:34:20;97000.28;;;7.40;100.00
55191;BME280;41070;50.360;18.742;2024-02-23T08:36:47;97000.16;;;7.42;100.00
55191;BME280;41070;50.360;18.742;2024-02-23T08:39:13;97004.27;;;7.42;100.00
55191;BME280;41070;50.360;18.742;2024-02-23T08:41:39;97009.15;;;7.42;100.00
55191;BME280;41070;50.360;18.742;2024-02-23T08:44:06;97009.22;;;7.43;100.00
55191;BME280;41070;50.360;18.742;2024-02-23T08:46:32;97010.16;;;7.45;100.00
55191;BME280;41070;50.360;18.742;2024-02-23T08:48:58;97015.05;;;7.46;100.00
55191;BME280;41070;50.360;18.742;2024-02-23T08:51:24;97022.91;;;7.49;100.00
55191;BME280;41070;50.360;18.742;2024-02-23T08:53:50;97027.68;;;7.53;100.00
55191;BME280;41070;50.360;18.742;2024-02-23T08:56:17;97029.17;;;7.56;100.00
55191;BME280;41070;50.360;18.742;2024-02-23T08:58:43;97031.65;;;7.59;100.00
55191;BME280;41070;50.360;18.742;2024-02-23T09:01:10;97033.52;;;7.62;100.00
55191;BME280;41070;50.360;18.742;2024-02-23T09:03:36;97031.11;;;7.65;100.00
55191;BME280;41070;50.360;18.742;2024-02-23T09:06:03;97037.39;;;7.68;100.00
55191;BME280;41070;50.360;18.742;2024-02-23T09:08:29;97031.44;;;7.71;100.00
55191;BME280;41070;50.360;18.742;2024-02-23T09:10:56;97039.62;;;7.76;100.00
55191;BME280;41070;50.360;18.742;2024-02-23T09:13:22;97042.91;;;7.82;100.00
55191;BME280;41070;50.360;18.742;2024-02-23T09:15:48;97040.73;;;7.91;100.00
55191;BME280;41070;50.360;18.742;2024-02-23T09:18:14;97046.77;;;7.99;100.00
55191;BME280;41070;50.360;18.742;2024-02-23T09:20:41;97051.35;;;8.06;100.00
55191;BME280;41070;50.360;18.742;2024-02-23T09:23:07;97056.88;;;8.12;100.00
55191;BME280;41070;50.360;18.742;2024-02-23T09:25:33;97060.56;;;8.20;100.00
55191;BME280;41070;50.360;18.742;2024-02-23T09:28:00;97061.27;;;8.30;100.00
55191;BME280;41070;50.360;18.742;2024-02-23T09:30:26;97066.07;;;8.41;100.00
55191;BME280;41070;50.360;18.742;2024-02-23T09:32:52;97067.71;;;8.51;100.00
55191;BME280;41070;50.360;18.742;2024-02-23T09:35:19;97069.36;;;8.63;100.00
55191;BME280;41070;50.360;18.742;2024-02-23T09:37:46;97068.57;;;8.76;100.00
55191;BME280;41070;50.360;18.742;2024-02-23T09:40:12;97070.67;;;8.89;100.00
55191;BME280;41070;50.360;18.742;2024-02-23T09:42:40;97069.84;;;8.99;100.00
55191;BME280;41070;50.360;18.742;2024-02-23T09:45:07;97074.78;;;9.06;100.00
55191;BME280;41070;50.360;18.742;2024-02-23T09:47:34;97077.58;;;9.11;100.00
55191;BME280;41070;50.360;18.742;2024-02-23T09:50:01;97083.38;;;9.12;100.00
55191;BME280;41070;50.360;18.742;2024-02-23T09:52:29;97086.83;;;9.15;100.00
55191;BME280;41070;50.360;18.742;2024-02-23T09:54:57;97088.26;;;9.13;100.00
55191;BME280;41070;50.360;18.742;2024-02-23T09:57:24;97086.76;;;9.06;100.00
55191;BME280;41070;50.360;18.742;2024-02-23T09:59:50;97087.38;;;9.00;100.00
55191;BME280;41070;50.360;18.742;2024-02-23T10:02:17;97094.91;;;8.98;100.00
55191;BME280;41070;50.360;18.742;2024-02-23T10:04:44;97098.77;;;8.96;100.00
55191;BME280;41070;50.360;18.742;2024-02-23T10:07:10;97099.93;;;8.97;100.00
55191;BME280;41070;50.360;18.742;2024-02-23T10:09:49;97101.27;;;9.01;100.00
55191;BME280;41070;50.360;18.742;2024-02-23T10:12:15;97093.52;;;9.03;100.00
55191;BME280;41070;50.360;18.742;2024-02-23T10:14:42;97086.70;;;9.01;100.00
55191;BME280;41070;50.360;18.742;2024-02-23T10:17:08;97086.77;;;9.00;100.00
55191;BME280;41070;50.360;18.742;2024-02-23T10:19:34;97084.81;;;9.03;100.00
55191;BME280;41070;50.360;18.742;2024-02-23T10:22:01;97083.64;;;9.09;100.00
55191;BME280;41070;50.360;18.742;2024-02-23T10:24:27;97081.73;;;9.15;100.00
55191;BME280;41070;50.360;18.742;2024-02-23T10:26:53;97083.67;;;9.21;100.00
55191;BME280;41070;50.360;18.742;2024-02-23T10:29:20;97088.61;;;9.28;100.00
55191;BME280;41070;50.360;18.742;2024-02-23T10:31:47;97096.11;;;9.33;100.00
55191;BME280;41070;50.360;18.742;2024-02-23T10:34:15;97103.45;;;9.34;100.00
55191;BME280;41070;50.360;18.742;2024-02-23T10:36:44;97103.36;;;9.32;100.00
55191;BME280;41070;50.360;18.742;2024-02-23T10:39:11;97109.71;;;9.36;100.00
55191;BME280;41070;50.360;18.742;2024-02-23T10:41:43;97115.22;;;9.38;100.00
55191;BME280;41070;50.360;18.742;2024-02-23T10:44:10;97124.84;;;9.38;100.00
55191;BME280;41070;50.360;18.742;2024-02-23T10:46:37;97135.78;;;9.42;100.00
55191;BME280;41070;50.360;18.742;2024-02-23T10:49:03;97139.60;;;9.43;100.00
55191;BME280;41070;50.360;18.742;2024-02-23T10:51:32;97142.58;;;9.43;100.00
55191;BME280;41070;50.360;18.742;2024-02-23T10:53:59;97149.02;;;9.38;100.00
55191;BME280;41070;50.360;18.742;2024-02-23T10:56:26;97151.92;;;9.31;100.00
55191;BME280;41070;50.360;18.742;2024-02-23T10:58:52;97155.41;;;9.20;100.00
55191;BME280;41070;50.360;18.742;2024-02-23T11:01:19;97155.44;;;9.15;100.00
55191;BME280;41070;50.360;18.742;2024-02-23T11:03:46;97154.96;;;9.12;100.00
55191;BME280;41070;50.360;18.742;2024-02-23T11:06:16;97153.73;;;9.11;100.00
55191;BME280;41070;50.360;18.742;2024-02-23T11:08:49;97151.63;;;9.14;100.00
55191;BME280;41070;50.360;18.742;2024-02-23T11:11:16;97155.29;;;9.16;100.00
55191;BME280;41070;50.360;18.742;2024-02-23T11:13:43;97156.95;;;9.13;100.00
55191;BME280;41070;50.360;18.742;2024-02-23T11:16:10;97164.84;;;9.09;100.00
55191;BME280;41070;50.360;18.742;2024-02-23T11:18:36;97173.25;;;9.11;100.00
55191;BME280;41070;50.360;18.742;2024-02-23T11:21:03;97180.95;;;9.12;100.00
55191;BME280;41070;50.360;18.742;2024-02-23T11:26:06;97182.74;;;9.07;100.00
55191;BME280;41070;50.360;18.742;2024-02-23T11:28:32;97186.69;;;9.06;100.00
55191;BME280;41070;50.360;18.742;2024-02-23T11:30:59;97186.30;;;9.06;100.00
55191;BME280;41070;50.360;18.742;2024-02-23T11:33:30;97186.73;;;9.11;100.00
55191;BME280;41070;50.360;18.742;2024-02-23T11:36:09;97184.17;;;9.13;100.00
55191;BME280;41070;50.360;18.742;2024-02-23T11:38:36;97181.58;;;9.14;100.00
55191;BME280;41070;50.360;18.742;2024-02-23T11:41:02;97182.36;;;9.15;100.00
55191;BME280;41070;50.360;18.742;2024-02-23T11:43:29;97177.58;;;9.18;100.00
55191;BME280;41070;50.360;18.742;2024-02-23T11:45:55;97186.17;;;9.23;100.00
55191;BME280;41070;50.360;18.742;2024-02-23T11:48:21;97185.47;;;9.30;100.00
55191;BME280;41070;50.360;18.742;2024-02-23T11:50:48;97185.21;;;9.35;100.00
55191;BME280;41070;50.360;18.742;2024-02-23T11:53:14;97192.51;;;9.40;100.00
55191;BME280;41070;50.360;18.742;2024-02-23T11:55:53;97199.76;;;9.40;100.00
55191;BME280;41070;50.360;18.742;2024-02-23T11:58:23;97202.95;;;9.39;100.00
55191;BME280;41070;50.360;18.742;2024-02-23T12:00:50;97207.59;;;9.37;100.00
55191;BME280;41070;50.360;18.742;2024-02-23T12:03:17;97205.48;;;9.34;100.00
55191;BME280;41070;50.360;18.742;2024-02-23T12:05:44;97207.80;;;9.29;100.00
55191;BME280;41070;50.360;18.742;2024-02-23T12:08:10;97214.38;;;9.23;100.00
55191;BME280;41070;50.360;18.742;2024-02-23T12:10:36;97211.20;;;9.18;100.00
55191;BME280;41070;50.360;18.742;2024-02-23T12:13:03;97200.33;;;9.13;100.00
55191;BME280;41070;50.360;18.742;2024-02-23T12:15:30;97196.99;;;9.09;100.00
55191;BME280;41070;50.360;18.742;2024-02-23T12:17:57;97186.61;;;9.05;100.00
55191;BME280;41070;50.360;18.742;2024-02-23T12:20:24;97189.27;;;9.03;100.00
55191;BME280;41070;50.360;18.742;2024-02-23T12:22:50;97195.36;;;9.03;100.00
55191;BME280;41070;50.360;18.742;2024-02-23T12:25:20;97193.61;;;9.04;100.00
55191;BME280;41070;50.360;18.742;2024-02-23T12:27:53;97188.30;;;9.06;100.00
55191;BME280;41070;50.360;18.742;2024-02-23T12:30:19;97187.11;;;9.11;100.00
55191;BME280;41070;50.360;18.742;2024-02-23T12:32:46;97191.89;;;9.16;100.00
55191;BME280;41070;50.360;18.742;2024-02-23T12:35:12;97204.45;;;9.21;100.00
55191;BME280;41070;50.360;18.742;2024-02-23T12:37:39;97206.67;;;9.22;100.00
55191;BME280;41070;50.360;18.742;2024-02-23T12:40:06;97203.00;;;9.21;100.00
55191;BME280;41070;50.360;18.742;2024-02-23T12:42:33;97202.80;;;9.23;100.00
55191;BME280;41070;50.360;18.742;2024-02-23T12:44:59;97200.30;;;9.25;100.00
55191;BME280;41070;50.360;18.742;2024-02-23T12:47:26;97200.86;;;9.29;100.00
55191;BME280;41070;50.360;18.742;2024-02-23T12:49:52;97209.02;;;9.28;100.00
55191;BME280;41070;50.360;18.742;2024-02-23T12:52:18;97207.52;;;9.23;100.00